sensor_id;sensor_type;location;lat;lon;timestamp;P1;durP1;ratioP1;P2;durP2;ratioP2
19339;SDS011;9804;52.350;6.684;2023-05-20T00:01:20;12.70;;;3.33;;
19339;SDS011;9804;52.350;6.684;2023-05-20T00:03:45;10.27;;;3.65;;
19339;SDS011;9804;52.350;6.684;2023-05-20T00:06:11;8.80;;;3.95;;
19339;SDS011;9804;52.350;6.684;2023-05-20T00:08:36;12.55;;;3.60;;
19339;SDS011;9804;52.350;6.684;2023-05-20T00:11:01;8.00;;;3.25;;
19339;SDS011;9804;52.350;6.684;2023-05-20T00:13:27;14.27;;;3.35;;
19339;SDS011;9804;52.350;6.684;2023-05-20T00:15:52;7.40;;;3.80;;
19339;SDS011;9804;52.350;6.684;2023-05-20T00:18:17;8.35;;;2.92;;
19339;SDS011;9804;52.350;6.684;2023-05-20T00:20:43;7.53;;;3.45;;
19339;SDS011;9804;52.350;6.684;2023-05-20T00:23:08;9.23;;;3.30;;
19339;SDS011;9804;52.350;6.684;2023-05-20T00:25:34;9.25;;;3.40;;
19339;SDS011;9804;52.350;6.684;2023-05-20T00:27:59;7.03;;;3.13;;
19339;SDS011;9804;52.350;6.684;2023-05-20T00:30:24;6.32;;;3.58;;
19339;SDS011;9804;52.350;6.684;2023-05-20T00:32:50;11.02;;;3.28;;
19339;SDS011;9804;52.350;6.684;2023-05-20T00:35:15;9.68;;;3.63;;
19339;SDS011;9804;52.350;6.684;2023-05-20T00:37:41;8.10;;;3.38;;
19339;SDS011;9804;52.350;6.684;2023-05-20T00:40:07;8.38;;;3.28;;
19339;SDS011;9804;52.350;6.684;2023-05-20T00:42:33;8.15;;;3.53;;
19339;SDS011;9804;52.350;6.684;2023-05-20T00:44:58;10.02;;;3.50;;
19339;SDS011;9804;52.350;6.684;2023-05-20T00:47:25;6.75;;;2.80;;
19339;SDS011;9804;52.350;6.684;2023-05-20T00:49:53;11.35;;;3.28;;
19339;SDS011;9804;52.350;6.684;2023-05-20T00:52:18;7.95;;;2.97;;
19339;SDS011;9804;52.350;6.684;2023-05-20T00:54:45;11.50;;;3.38;;
19339;SDS011;9804;52.350;6.684;2023-05-20T00:57:10;7.68;;;2.92;;
19339;SDS011;9804;52.350;6.684;2023-05-20T00:59:36;11.02;;;3.22;;
19339;SDS011;9804;52.350;6.684;2023-05-20T01:02:03;5.55;;;2.97;;
19339;SDS011;9804;52.350;6.684;2023-05-20T01:04:29;8.65;;;2.67;;
19339;SDS011;9804;52.350;6.684;2023-05-20T01:06:55;5.45;;;2.40;;
19339;SDS011;9804;52.350;6.684;2023-05-20T01:09:22;6.40;;;2.90;;
19339;SDS011;9804;52.350;6.684;2023-05-20T01:11:54;6.72;;;2.92;;
19339;SDS011;9804;52.350;6.684;2023-05-20T01:14:27;7.07;;;3.35;;
19339;SDS011;9804;52.350;6.684;2023-05-20T01:16:55;7.80;;;2.75;;
19339;SDS011;9804;52.350;6.684;2023-05-20T01:19:26;7.05;;;2.65;;
19339;SDS011;9804;52.350;6.684;2023-05-20T01:21:59;6.18;;;3.78;;
19339;SDS011;9804;52.350;6.684;2023-05-20T01:24:27;6.15;;;3.15;;
19339;SDS011;9804;52.350;6.684;2023-05-20T01:26:52;8.27;;;3.13;;
19339;SDS011;9804;52.350;6.684;2023-05-20T01:29:18;6.53;;;2.95;;
19339;SDS011;9804;52.350;6.684;2023-05-20T01:31:43;5.53;;;2.65;;
19339;SDS011;9804;52.350;6.684;2023-05-20T01:34:11;5.03;;;2.78;;
19339;SDS011;9804;52.350;6.684;2023-05-20T01:36:37;6.20;;;3.00;;
19339;SDS011;9804;52.350;6.684;2023-05-20T01:39:04;7.88;;;3.00;;
19339;SDS011;9804;52.350;6.684;2023-05-20T01:41:30;7.85;;;2.80;;
19339;SDS011;9804;52.350;6.684;2023-05-20T01:43:58;8.38;;;3.05;;
19339;SDS011;9804;52.350;6.684;2023-05-20T01:46:24;4.18;;;2.58;;
19339;SDS011;9804;52.350;6.684;2023-05-20T01:48:49;6.22;;;2.90;;
19339;SDS011;9804;52.350;6.684;2023-05-20T01:51:15;5.30;;;2.58;;
19339;SDS011;9804;52.350;6.684;2023-05-20T01:53:41;7.18;;;2.90;;
19339;SDS011;9804;52.350;6.684;2023-05-20T01:56:07;8.95;;;2.58;;
19339;SDS011;9804;52.350;6.684;2023-05-20T01:58:32;4.30;;;2.50;;
19339;SDS011;9804;52.350;6.684;2023-05-20T02:00:57;8.05;;;2.60;;
19339;SDS011;9804;52.350;6.684;2023-05-20T02:03:23;6.00;;;2.72;;
19339;SDS011;9804;52.350;6.684;2023-05-20T02:05:49;5.57;;;2.65;;
19339;SDS011;9804;52.350;6.684;2023-05-20T02:08:15;11.43;;;3.42;;
19339;SDS011;9804;52.350;6.684;2023-05-20T02:10:40;6.88;;;2.80;;
19339;SDS011;9804;52.350;6.684;2023-05-20T02:13:05;6.93;;;3.30;;
19339;SDS011;9804;52.350;6.684;2023-05-20T02:15:31;7.43;;;2.78;;
19339;SDS011;9804;52.350;6.684;2023-05-20T02:17:56;4.18;;;2.67;;
19339;SDS011;9804;52.350;6.684;2023-05-20T02:20:22;7.10;;;2.90;;
19339;SDS011;9804;52.350;6.684;2023-05-20T02:22:47;7.97;;;3.08;;
19339;SDS011;9804;52.350;6.684;2023-05-20T02:25:12;7.28;;;2.78;;
19339;SDS011;9804;52.350;6.684;2023-05-20T02:27:38;7.05;;;2.65;;
19339;SDS011;9804;52.350;6.684;2023-05-20T02:30:04;6.50;;;2.63;;
19339;SDS011;9804;52.350;6.684;2023-05-20T02:32:31;6.53;;;2.80;;
19339;SDS011;9804;52.350;6.684;2023-05-20T02:34:57;4.70;;;2.67;;
19339;SDS011;9804;52.350;6.684;2023-05-20T02:37:23;5.15;;;2.58;;
19339;SDS011;9804;52.350;6.684;2023-05-20T02:39:48;6.97;;;2.60;;
19339;SDS011;9804;52.350;6.684;2023-05-20T02:42:13;7.10;;;3.03;;
19339;SDS011;9804;52.350;6.684;2023-05-20T02:44:39;4.75;;;2.45;;
19339;SDS011;9804;52.350;6.684;2023-05-20T02:47:05;7.35;;;3.08;;
19339;SDS011;9804;52.350;6.684;2023-05-20T02:49:30;5.20;;;3.00;;
19339;SDS011;9804;52.350;6.684;2023-05-20T02:51:56;5.63;;;2.70;;
19339;SDS011;9804;52.350;6.684;2023-05-20T02:54:21;4.80;;;2.53;;
19339;SDS011;9804;52.350;6.684;2023-05-20T02:56:46;9.88;;;2.65;;
19339;SDS011;9804;52.350;6.684;2023-05-20T02:59:12;4.10;;;3.08;;
19339;SDS011;9804;52.350;6.684;2023-05-20T03:01:37;7.22;;;2.63;;
19339;SDS011;9804;52.350;6.684;2023-05-20T03:04:04;4.93;;;2.40;;
19339;SDS011;9804;52.350;6.684;2023-05-20T03:06:30;3.22;;;2.30;;
19339;SDS011;9804;52.350;6.684;2023-05-20T03:08:58;8.48;;;3.08;;
19339;SDS011;9804;52.350;6.684;2023-05-20T03:11:23;6.78;;;2.70;;
19339;SDS011;9804;52.350;6.684;2023-05-20T03:13:48;4.93;;;2.50;;
19339;SDS011;9804;52.350;6.684;2023-05-20T03:16:14;7.68;;;2.60;;
19339;SDS011;9804;52.350;6.684;2023-05-20T03:18:40;5.03;;;2.50;;
19339;SDS011;9804;52.350;6.684;2023-05-20T03:21:06;6.20;;;2.70;;
19339;SDS011;9804;52.350;6.684;2023-05-20T03:23:32;4.88;;;2.83;;
19339;SDS011;9804;52.350;6.684;2023-05-20T03:25:57;5.53;;;2.28;;
19339;SDS011;9804;52.350;6.684;2023-05-20T03:28:22;5.60;;;2.95;;
19339;SDS011;9804;52.350;6.684;2023-05-20T03:30:48;6.03;;;2.60;;
19339;SDS011;9804;52.350;6.684;2023-05-20T03:33:13;4.40;;;2.42;;
19339;SDS011;9804;52.350;6.684;2023-05-20T03:35:39;6.25;;;2.70;;
19339;SDS011;9804;52.350;6.684;2023-05-20T03:38:05;7.35;;;2.67;;
19339;SDS011;9804;52.350;6.684;2023-05-20T03:40:30;9.00;;;2.40;;
19339;SDS011;9804;52.350;6.684;2023-05-20T03:42:56;5.25;;;2.80;;
19339;SDS011;9804;52.350;6.684;2023-05-20T03:45:21;6.40;;;2.75;;
19339;SDS011;9804;52.350;6.684;2023-05-20T03:47:47;7.40;;;2.55;;
19339;SDS011;9804;52.350;6.684;2023-05-20T03:50:12;6.60;;;2.33;;
19339;SDS011;9804;52.350;6.684;2023-05-20T03:52:37;5.72;;;2.60;;
19339;SDS011;9804;52.350;6.684;2023-05-20T03:55:04;7.10;;;3.05;;
19339;SDS011;9804;52.350;6.684;2023-05-20T03:57:30;6.80;;;2.50;;
19339;SDS011;9804;52.350;6.684;2023-05-20T03:59:56;4.88;;;2.42;;
19339;SDS011;9804;52.350;6.684;2023-05-20T04:02:21;5.60;;;2.60;;
19339;SDS011;9804;52.350;6.684;2023-05-20T04:04:47;5.65;;;2.50;;
19339;SDS011;9804;52.350;6.684;2023-05-20T04:07:12;4.88;;;2.60;;
19339;SDS011;9804;52.350;6.684;2023-05-20T04:09:37;5.25;;;2.20;;
19339;SDS011;9804;52.350;6.684;2023-05-20T04:12:06;2.78;;;2.20;;
19339;SDS011;9804;52.350;6.684;2023-05-20T04:14:31;7.75;;;2.60;;
19339;SDS011;9804;52.350;6.684;2023-05-20T04:16:59;5.82;;;2.22;;
19339;SDS011;9804;52.350;6.684;2023-05-20T04:19:25;5.25;;;2.28;;
19339;SDS011;9804;52.350;6.684;2023-05-20T04:21:52;4.03;;;2.08;;
19339;SDS011;9804;52.350;6.684;2023-05-20T04:24:18;6.13;;;2.63;;
19339;SDS011;9804;52.350;6.684;2023-05-20T04:26:43;4.32;;;2.38;;
19339;SDS011;9804;52.350;6.684;2023-05-20T04:29:08;3.33;;;2.10;;
19339;SDS011;9804;52.350;6.684;2023-05-20T04:31:34;4.15;;;2.33;;
19339;SDS011;9804;52.350;6.684;2023-05-20T04:33:59;6.18;;;2.28;;
19339;SDS011;9804;52.350;6.684;2023-05-20T04:36:24;4.88;;;2.05;;
19339;SDS011;9804;52.350;6.684;2023-05-20T04:38:53;3.25;;;2.10;;
19339;SDS011;9804;52.350;6.684;2023-05-20T04:41:19;2.55;;;1.85;;
19339;SDS011;9804;52.350;6.684;2023-05-20T04:43:44;5.18;;;2.47;;
19339;SDS011;9804;52.350;6.684;2023-05-20T04:46:10;3.40;;;2.10;;
19339;SDS011;9804;52.350;6.684;2023-05-20T04:48:35;4.43;;;2.47;;
19339;SDS011;9804;52.350;6.684;2023-05-20T04:51:01;4.00;;;2.03;;
19339;SDS011;9804;52.350;6.684;2023-05-20T04:53:27;5.22;;;2.15;;
19339;SDS011;9804;52.350;6.684;2023-05-20T04:55:54;5.57;;;2.10;;
19339;SDS011;9804;52.350;6.684;2023-05-20T04:58:20;3.70;;;2.42;;
19339;SDS011;9804;52.350;6.684;2023-05-20T05:00:48;3.38;;;2.03;;
19339;SDS011;9804;52.350;6.684;2023-05-20T05:03:14;3.35;;;2.00;;
19339;SDS011;9804;52.350;6.684;2023-05-20T05:05:40;4.63;;;2.00;;
19339;SDS011;9804;52.350;6.684;2023-05-20T05:08:06;2.80;;;2.00;;
19339;SDS011;9804;52.350;6.684;2023-05-20T05:10:32;5.70;;;1.80;;
19339;SDS011;9804;52.350;6.684;2023-05-20T05:12:58;2.97;;;1.80;;
19339;SDS011;9804;52.350;6.684;2023-05-20T05:15:24;6.30;;;2.35;;
19339;SDS011;9804;52.350;6.684;2023-05-20T05:17:50;3.40;;;2.10;;
19339;SDS011;9804;52.350;6.684;2023-05-20T05:20:15;5.80;;;2.20;;
19339;SDS011;9804;52.350;6.684;2023-05-20T05:22:41;6.80;;;1.92;;
19339;SDS011;9804;52.350;6.684;2023-05-20T05:25:07;3.10;;;1.90;;
19339;SDS011;9804;52.350;6.684;2023-05-20T05:27:33;6.22;;;2.10;;
19339;SDS011;9804;52.350;6.684;2023-05-20T05:30:00;2.90;;;2.10;;
19339;SDS011;9804;52.350;6.684;2023-05-20T05:32:26;2.72;;;1.73;;
19339;SDS011;9804;52.350;6.684;2023-05-20T05:34:51;6.28;;;1.77;;
19339;SDS011;9804;52.350;6.684;2023-05-20T05:37:16;2.53;;;1.90;;
19339;SDS011;9804;52.350;6.684;2023-05-20T05:39:42;5.95;;;2.10;;
19339;SDS011;9804;52.350;6.684;2023-05-20T05:42:07;4.78;;;2.30;;
19339;SDS011;9804;52.350;6.684;2023-05-20T05:44:32;3.92;;;1.73;;
19339;SDS011;9804;52.350;6.684;2023-05-20T05:46:58;4.20;;;2.17;;
19339;SDS011;9804;52.350;6.684;2023-05-20T05:49:23;4.30;;;1.95;;
19339;SDS011;9804;52.350;6.684;2023-05-20T05:51:50;3.63;;;2.03;;
19339;SDS011;9804;52.350;6.684;2023-05-20T05:54:15;5.35;;;2.00;;
19339;SDS011;9804;52.350;6.684;2023-05-20T05:56:41;4.65;;;1.70;;
19339;SDS011;9804;52.350;6.684;2023-05-20T05:59:06;3.10;;;1.70;;
19339;SDS011;9804;52.350;6.684;2023-05-20T06:01:32;5.25;;;1.98;;
19339;SDS011;9804;52.350;6.684;2023-05-20T06:03:57;4.45;;;1.90;;
19339;SDS011;9804;52.350;6.684;2023-05-20T06:06:22;4.20;;;1.85;;
19339;SDS011;9804;52.350;6.684;2023-05-20T06:08:48;4.63;;;1.90;;
19339;SDS011;9804;52.350;6.684;2023-05-20T06:11:13;3.47;;;2.10;;
19339;SDS011;9804;52.350;6.684;2023-05-20T06:13:38;2.13;;;1.60;;
19339;SDS011;9804;52.350;6.684;2023-05-20T06:16:04;2.28;;;1.65;;
19339;SDS011;9804;52.350;6.684;2023-05-20T06:18:29;4.90;;;2.10;;
19339;SDS011;9804;52.350;6.684;2023-05-20T06:20:55;2.70;;;2.03;;
19339;SDS011;9804;52.350;6.684;2023-05-20T06:23:21;4.30;;;2.30;;
19339;SDS011;9804;52.350;6.684;2023-05-20T06:25:46;3.17;;;2.10;;
19339;SDS011;9804;52.350;6.684;2023-05-20T06:28:12;5.65;;;2.17;;
19339;SDS011;9804;52.350;6.684;2023-05-20T06:30:38;4.13;;;1.90;;
19339;SDS011;9804;52.350;6.684;2023-05-20T06:33:04;3.05;;;2.28;;
19339;SDS011;9804;52.350;6.684;2023-05-20T06:35:30;5.10;;;1.80;;
19339;SDS011;9804;52.350;6.684;2023-05-20T06:37:55;3.45;;;2.08;;
19339;SDS011;9804;52.350;6.684;2023-05-20T06:40:20;6.05;;;1.90;;
19339;SDS011;9804;52.350;6.684;2023-05-20T06:42:46;4.32;;;2.00;;
19339;SDS011;9804;52.350;6.684;2023-05-20T06:45:11;3.10;;;1.88;;
19339;SDS011;9804;52.350;6.684;2023-05-20T06:47:37;4.60;;;2.38;;
19339;SDS011;9804;52.350;6.684;2023-05-20T06:50:03;3.28;;;2.08;;
19339;SDS011;9804;52.350;6.684;2023-05-20T06:52:28;5.50;;;2.40;;
19339;SDS011;9804;52.350;6.684;2023-05-20T06:54:54;4.07;;;2.15;;
19339;SDS011;9804;52.350;6.684;2023-05-20T06:57:19;4.38;;;2.63;;
19339;SDS011;9804;52.350;6.684;2023-05-20T06:59:46;4.35;;;2.50;;
19339;SDS011;9804;52.350;6.684;2023-05-20T07:02:11;5.97;;;2.55;;
19339;SDS011;9804;52.350;6.684;2023-05-20T07:04:37;3.58;;;2.47;;
19339;SDS011;9804;52.350;6.684;2023-05-20T07:07:02;5.75;;;2.10;;
19339;SDS011;9804;52.350;6.684;2023-05-20T07:09:27;3.63;;;2.40;;
19339;SDS011;9804;52.350;6.684;2023-05-20T07:11:53;3.33;;;2.35;;
19339;SDS011;9804;52.350;6.684;2023-05-20T07:14:18;3.42;;;2.30;;
19339;SDS011;9804;52.350;6.684;2023-05-20T07:16:44;5.47;;;2.22;;
19339;SDS011;9804;52.350;6.684;2023-05-20T07:19:09;3.45;;;2.70;;
19339;SDS011;9804;52.350;6.684;2023-05-20T07:21:34;4.70;;;2.17;;
19339;SDS011;9804;52.350;6.684;2023-05-20T07:24:00;3.22;;;2.20;;
19339;SDS011;9804;52.350;6.684;2023-05-20T07:26:25;5.70;;;2.35;;
19339;SDS011;9804;52.350;6.684;2023-05-20T07:28:51;4.80;;;2.70;;
19339;SDS011;9804;52.350;6.684;2023-05-20T07:31:16;3.72;;;2.70;;
19339;SDS011;9804;52.350;6.684;2023-05-20T07:33:41;3.95;;;2.40;;
19339;SDS011;9804;52.350;6.684;2023-05-20T07:36:07;3.03;;;2.67;;
19339;SDS011;9804;52.350;6.684;2023-05-20T07:38:32;3.92;;;2.80;;
19339;SDS011;9804;52.350;6.684;2023-05-20T07:40:57;4.70;;;2.63;;
19339;SDS011;9804;52.350;6.684;2023-05-20T07:43:23;3.42;;;2.55;;
19339;SDS011;9804;52.350;6.684;2023-05-20T07:45:48;4.93;;;2.63;;
19339;SDS011;9804;52.350;6.684;2023-05-20T07:48:14;2.80;;;2.50;;
19339;SDS011;9804;52.350;6.684;2023-05-20T07:50:39;2.92;;;2.40;;
19339;SDS011;9804;52.350;6.684;2023-05-20T07:53:05;5.47;;;2.63;;
19339;SDS011;9804;52.350;6.684;2023-05-20T07:55:32;5.45;;;2.60;;
19339;SDS011;9804;52.350;6.684;2023-05-20T07:57:58;6.53;;;2.53;;
19339;SDS011;9804;52.350;6.684;2023-05-20T08:00:24;7.85;;;3.20;;
19339;SDS011;9804;52.350;6.684;2023-05-20T08:02:49;4.18;;;2.70;;
19339;SDS011;9804;52.350;6.684;2023-05-20T08:05:14;3.33;;;2.30;;
19339;SDS011;9804;52.350;6.684;2023-05-20T08:07:40;5.53;;;2.80;;
19339;SDS011;9804;52.350;6.684;2023-05-20T08:10:06;3.00;;;2.20;;
19339;SDS011;9804;52.350;6.684;2023-05-20T08:12:31;5.35;;;2.53;;
19339;SDS011;9804;52.350;6.684;2023-05-20T08:14:57;7.07;;;2.50;;
19339;SDS011;9804;52.350;6.684;2023-05-20T08:17:22;5.00;;;2.33;;
19339;SDS011;9804;52.350;6.684;2023-05-20T08:19:47;2.85;;;2.00;;
19339;SDS011;9804;52.350;6.684;2023-05-20T08:22:13;3.80;;;2.60;;
19339;SDS011;9804;52.350;6.684;2023-05-20T08:24:38;4.28;;;2.10;;
19339;SDS011;9804;52.350;6.684;2023-05-20T08:27:04;5.97;;;2.20;;
19339;SDS011;9804;52.350;6.684;2023-05-20T08:29:29;5.35;;;2.40;;
19339;SDS011;9804;52.350;6.684;2023-05-20T08:31:55;4.40;;;2.55;;
19339;SDS011;9804;52.350;6.684;2023-05-20T08:34:20;5.38;;;2.20;;
19339;SDS011;9804;52.350;6.684;2023-05-20T08:36:46;4.40;;;2.30;;
19339;SDS011;9804;52.350;6.684;2023-05-20T08:39:11;4.35;;;1.98;;
19339;SDS011;9804;52.350;6.684;2023-05-20T08:41:37;3.10;;;2.40;;
19339;SDS011;9804;52.350;6.684;2023-05-20T08:44:03;2.85;;;1.85;;
19339;SDS011;9804;52.350;6.684;2023-05-20T08:46:30;6.10;;;2.08;;
19339;SDS011;9804;52.350;6.684;2023-05-20T08:48:58;3.78;;;2.05;;
19339;SDS011;9804;52.350;6.684;2023-05-20T08:51:23;5.32;;;2.50;;
19339;SDS011;9804;52.350;6.684;2023-05-20T08:53:51;7.53;;;2.35;;
19339;SDS011;9804;52.350;6.684;2023-05-20T08:56:17;3.45;;;2.30;;
19339;SDS011;9804;52.350;6.684;2023-05-20T08:58:43;4.93;;;2.38;;
19339;SDS011;9804;52.350;6.684;2023-05-20T09:01:10;6.05;;;2.13;;
19339;SDS011;9804;52.350;6.684;2023-05-20T09:03:36;3.60;;;2.22;;
19339;SDS011;9804;52.350;6.684;2023-05-20T09:06:14;4.88;;;2.50;;
19339;SDS011;9804;52.350;6.684;2023-05-20T09:08:40;4.22;;;2.30;;
19339;SDS011;9804;52.350;6.684;2023-05-20T09:11:08;4.32;;;1.90;;
19339;SDS011;9804;52.350;6.684;2023-05-20T09:13:34;4.07;;;2.10;;
19339;SDS011;9804;52.350;6.684;2023-05-20T09:15:59;4.40;;;2.17;;
19339;SDS011;9804;52.350;6.684;2023-05-20T09:18:26;3.90;;;2.20;;
19339;SDS011;9804;52.350;6.684;2023-05-20T09:20:51;9.52;;;2.13;;
19339;SDS011;9804;52.350;6.684;2023-05-20T09:23:17;5.97;;;2.25;;
19339;SDS011;9804;52.350;6.684;2023-05-20T09:25:47;3.80;;;1.90;;
19339;SDS011;9804;52.350;6.684;2023-05-20T09:28:14;2.40;;;1.92;;
19339;SDS011;9804;52.350;6.684;2023-05-20T09:30:40;4.40;;;1.85;;
19339;SDS011;9804;52.350;6.684;2023-05-20T09:33:05;7.28;;;2.05;;
19339;SDS011;9804;52.350;6.684;2023-05-20T09:35:34;6.55;;;1.75;;
19339;SDS011;9804;52.350;6.684;2023-05-20T09:38:03;7.95;;;2.30;;
19339;SDS011;9804;52.350;6.684;2023-05-20T09:40:31;3.22;;;1.60;;
19339;SDS011;9804;52.350;6.684;2023-05-20T09:43:01;3.95;;;1.90;;
19339;SDS011;9804;52.350;6.684;2023-05-20T09:45:28;3.55;;;2.00;;
19339;SDS011;9804;52.350;6.684;2023-05-20T09:47:53;5.97;;;1.70;;
19339;SDS011;9804;52.350;6.684;2023-05-20T09:50:21;2.50;;;1.50;;
19339;SDS011;9804;52.350;6.684;2023-05-20T09:52:47;7.05;;;2.30;;
19339;SDS011;9804;52.350;6.684;2023-05-20T09:55:14;5.43;;;1.90;;
19339;SDS011;9804;52.350;6.684;2023-05-20T09:57:41;9.45;;;1.90;;
19339;SDS011;9804;52.350;6.684;2023-05-20T10:00:07;5.60;;;1.67;;
19339;SDS011;9804;52.350;6.684;2023-05-20T10:02:33;3.65;;;1.40;;
19339;SDS011;9804;52.350;6.684;2023-05-20T10:05:02;3.83;;;1.60;;
19339;SDS011;9804;52.350;6.684;2023-05-20T10:07:45;3.05;;;1.42;;
19339;SDS011;9804;52.350;6.684;2023-05-20T10:10:19;2.10;;;1.65;;
19339;SDS011;9804;52.350;6.684;2023-05-20T10:15:54;5.47;;;1.60;;
19339;SDS011;9804;52.350;6.684;2023-05-20T10:21:13;3.58;;;1.90;;
19339;SDS011;9804;52.350;6.684;2023-05-20T10:23:40;3.15;;;1.80;;
19339;SDS011;9804;52.350;6.684;2023-05-20T10:26:06;2.72;;;1.70;;
19339;SDS011;9804;52.350;6.684;2023-05-20T10:28:35;3.30;;;1.48;;
19339;SDS011;9804;52.350;6.684;2023-05-20T10:31:01;3.97;;;1.60;;
19339;SDS011;9804;52.350;6.684;2023-05-20T10:33:28;4.82;;;1.60;;
19339;SDS011;9804;52.350;6.684;2023-05-20T10:35:57;8.00;;;1.75;;
19339;SDS011;9804;52.350;6.684;2023-05-20T10:38:23;4.97;;;2.15;;
19339;SDS011;9804;52.350;6.684;2023-05-20T10:40:49;4.38;;;1.45;;
19339;SDS011;9804;52.350;6.684;2023-05-20T10:43:15;9.48;;;1.80;;
19339;SDS011;9804;52.350;6.684;2023-05-20T10:45:46;6.40;;;1.98;;
19339;SDS011;9804;52.350;6.684;2023-05-20T10:50:53;4.20;;;1.70;;
19339;SDS011;9804;52.350;6.684;2023-05-20T10:53:21;2.08;;;1.67;;
19339;SDS011;9804;52.350;6.684;2023-05-20T10:55:48;4.00;;;1.60;;
19339;SDS011;9804;52.350;6.684;2023-05-20T10:58:15;5.50;;;1.75;;
19339;SDS011;9804;52.350;6.684;2023-05-20T11:00:42;6.35;;;1.38;;
19339;SDS011;9804;52.350;6.684;2023-05-20T11:03:07;4.60;;;1.52;;
19339;SDS011;9804;52.350;6.684;2023-05-20T11:05:33;2.67;;;1.70;;
19339;SDS011;9804;52.350;6.684;2023-05-20T11:08:03;5.22;;;1.23;;
19339;SDS011;9804;52.350;6.684;2023-05-20T11:10:30;5.82;;;2.00;;
19339;SDS011;9804;52.350;6.684;2023-05-20T11:13:01;7.50;;;1.58;;
19339;SDS011;9804;52.350;6.684;2023-05-20T11:15:27;3.83;;;2.03;;
19339;SDS011;9804;52.350;6.684;2023-05-20T11:17:55;3.35;;;1.58;;
19339;SDS011;9804;52.350;6.684;2023-05-20T11:20:22;4.35;;;1.38;;
19339;SDS011;9804;52.350;6.684;2023-05-20T11:22:52;4.00;;;1.42;;
19339;SDS011;9804;52.350;6.684;2023-05-20T11:25:18;5.47;;;1.70;;
19339;SDS011;9804;52.350;6.684;2023-05-20T11:27:45;6.18;;;1.30;;
19339;SDS011;9804;52.350;6.684;2023-05-20T11:30:12;3.88;;;1.48;;
19339;SDS011;9804;52.350;6.684;2023-05-20T11:32:58;2.08;;;1.38;;
19339;SDS011;9804;52.350;6.684;2023-05-20T11:35:25;3.53;;;1.60;;
19339;SDS011;9804;52.350;6.684;2023-05-20T11:38:05;2.58;;;1.42;;
19339;SDS011;9804;52.350;6.684;2023-05-20T11:40:33;2.42;;;1.30;;
19339;SDS011;9804;52.350;6.684;2023-05-20T11:42:59;3.90;;;1.50;;
19339;SDS011;9804;52.350;6.684;2023-05-20T11:45:26;2.37;;;1.33;;
19339;SDS011;9804;52.350;6.684;2023-05-20T11:48:02;3.63;;;1.25;;
19339;SDS011;9804;52.350;6.684;2023-05-20T11:50:33;3.15;;;1.42;;
19339;SDS011;9804;52.350;6.684;2023-05-20T11:53:09;6.90;;;1.70;;
19339;SDS011;9804;52.350;6.684;2023-05-20T11:55:43;3.92;;;1.45;;
19339;SDS011;9804;52.350;6.684;2023-05-20T11:58:18;6.38;;;1.60;;
19339;SDS011;9804;52.350;6.684;2023-05-20T12:00:44;3.40;;;1.23;;
19339;SDS011;9804;52.350;6.684;2023-05-20T12:03:10;2.40;;;1.58;;
19339;SDS011;9804;52.350;6.684;2023-05-20T12:05:36;4.38;;;1.27;;
19339;SDS011;9804;52.350;6.684;2023-05-20T12:08:02;2.75;;;1.50;;
19339;SDS011;9804;52.350;6.684;2023-05-20T12:10:28;1.80;;;1.20;;
19339;SDS011;9804;52.350;6.684;2023-05-20T12:12:53;4.68;;;1.58;;
19339;SDS011;9804;52.350;6.684;2023-05-20T12:15:19;4.97;;;1.13;;
19339;SDS011;9804;52.350;6.684;2023-05-20T12:17:45;6.45;;;1.80;;
19339;SDS011;9804;52.350;6.684;2023-05-20T12:20:13;2.30;;;1.17;;
19339;SDS011;9804;52.350;6.684;2023-05-20T12:22:40;2.30;;;1.60;;
19339;SDS011;9804;52.350;6.684;2023-05-20T12:25:07;4.57;;;1.58;;
19339;SDS011;9804;52.350;6.684;2023-05-20T12:27:33;2.80;;;1.35;;
19339;SDS011;9804;52.350;6.684;2023-05-20T12:29:58;2.75;;;1.45;;
19339;SDS011;9804;52.350;6.684;2023-05-20T12:32:24;5.82;;;1.67;;
19339;SDS011;9804;52.350;6.684;2023-05-20T12:34:49;2.47;;;1.40;;
19339;SDS011;9804;52.350;6.684;2023-05-20T12:37:15;2.63;;;1.50;;
19339;SDS011;9804;52.350;6.684;2023-05-20T12:39:40;4.78;;;1.48;;
19339;SDS011;9804;52.350;6.684;2023-05-20T12:42:06;5.88;;;1.60;;
19339;SDS011;9804;52.350;6.684;2023-05-20T12:44:31;6.05;;;1.40;;
19339;SDS011;9804;52.350;6.684;2023-05-20T12:46:57;2.47;;;1.38;;
19339;SDS011;9804;52.350;6.684;2023-05-20T12:49:22;5.18;;;1.50;;
19339;SDS011;9804;52.350;6.684;2023-05-20T12:51:47;2.63;;;1.30;;
19339;SDS011;9804;52.350;6.684;2023-05-20T12:54:13;4.30;;;1.55;;
19339;SDS011;9804;52.350;6.684;2023-05-20T12:56:38;1.55;;;1.20;;
19339;SDS011;9804;52.350;6.684;2023-05-20T12:59:04;2.35;;;1.58;;
19339;SDS011;9804;52.350;6.684;2023-05-20T13:01:30;4.22;;;1.10;;
19339;SDS011;9804;52.350;6.684;2023-05-20T13:03:55;3.75;;;1.38;;
19339;SDS011;9804;52.350;6.684;2023-05-20T13:06:21;3.50;;;1.42;;
19339;SDS011;9804;52.350;6.684;2023-05-20T13:08:46;2.20;;;1.40;;
19339;SDS011;9804;52.350;6.684;2023-05-20T13:11:11;3.30;;;1.30;;
19339;SDS011;9804;52.350;6.684;2023-05-20T13:13:37;6.30;;;1.40;;
19339;SDS011;9804;52.350;6.684;2023-05-20T13:16:02;4.20;;;1.35;;
19339;SDS011;9804;52.350;6.684;2023-05-20T13:18:28;2.35;;;1.52;;
19339;SDS011;9804;52.350;6.684;2023-05-20T13:20:53;3.80;;;1.38;;
19339;SDS011;9804;52.350;6.684;2023-05-20T13:23:18;6.88;;;1.55;;
19339;SDS011;9804;52.350;6.684;2023-05-20T13:25:44;3.35;;;1.65;;
19339;SDS011;9804;52.350;6.684;2023-05-20T13:28:09;1.80;;;1.20;;
19339;SDS011;9804;52.350;6.684;2023-05-20T13:30:36;5.65;;;1.33;;
19339;SDS011;9804;52.350;6.684;2023-05-20T13:33:01;3.80;;;1.40;;
19339;SDS011;9804;52.350;6.684;2023-05-20T13:35:27;5.07;;;1.42;;
19339;SDS011;9804;52.350;6.684;2023-05-20T13:37:52;2.72;;;1.30;;
19339;SDS011;9804;52.350;6.684;2023-05-20T13:40:18;1.85;;;1.33;;
19339;SDS011;9804;52.350;6.684;2023-05-20T13:42:43;2.10;;;1.13;;
19339;SDS011;9804;52.350;6.684;2023-05-20T13:45:08;1.70;;;1.27;;
19339;SDS011;9804;52.350;6.684;2023-05-20T13:47:34;4.50;;;1.40;;
19339;SDS011;9804;52.350;6.684;2023-05-20T13:49:59;2.97;;;1.38;;
19339;SDS011;9804;52.350;6.684;2023-05-20T13:52:25;1.48;;;1.17;;
19339;SDS011;9804;52.350;6.684;2023-05-20T13:54:50;5.35;;;1.42;;
19339;SDS011;9804;52.350;6.684;2023-05-20T13:57:16;2.28;;;1.30;;
19339;SDS011;9804;52.350;6.684;2023-05-20T13:59:41;2.05;;;1.10;;
19339;SDS011;9804;52.350;6.684;2023-05-20T14:02:06;4.60;;;1.50;;
19339;SDS011;9804;52.350;6.684;2023-05-20T14:04:32;1.77;;;1.30;;
19339;SDS011;9804;52.350;6.684;2023-05-20T14:07:04;5.07;;;1.17;;
19339;SDS011;9804;52.350;6.684;2023-05-20T14:09:29;2.55;;;1.23;;
19339;SDS011;9804;52.350;6.684;2023-05-20T14:11:55;3.83;;;1.27;;
19339;SDS011;9804;52.350;6.684;2023-05-20T14:14:20;2.55;;;1.13;;
19339;SDS011;9804;52.350;6.684;2023-05-20T14:16:46;4.80;;;1.45;;
19339;SDS011;9804;52.350;6.684;2023-05-20T14:19:11;3.08;;;1.33;;
19339;SDS011;9804;52.350;6.684;2023-05-20T14:21:37;4.43;;;1.40;;
19339;SDS011;9804;52.350;6.684;2023-05-20T14:24:02;6.18;;;1.45;;
19339;SDS011;9804;52.350;6.684;2023-05-20T14:26:27;3.53;;;1.50;;
19339;SDS011;9804;52.350;6.684;2023-05-20T14:28:53;2.72;;;1.50;;
19339;SDS011;9804;52.350;6.684;2023-05-20T14:31:18;2.70;;;1.27;;
19339;SDS011;9804;52.350;6.684;2023-05-20T14:33:43;1.90;;;1.20;;
19339;SDS011;9804;52.350;6.684;2023-05-20T14:36:09;4.75;;;1.60;;
19339;SDS011;9804;52.350;6.684;2023-05-20T14:38:35;4.78;;;1.40;;
19339;SDS011;9804;52.350;6.684;2023-05-20T14:41:00;3.33;;;1.27;;
19339;SDS011;9804;52.350;6.684;2023-05-20T14:43:26;2.75;;;1.20;;
19339;SDS011;9804;52.350;6.684;2023-05-20T14:45:51;5.00;;;1.30;;
19339;SDS011;9804;52.350;6.684;2023-05-20T14:48:17;3.13;;;1.13;;
19339;SDS011;9804;52.350;6.684;2023-05-20T14:50:42;3.05;;;1.50;;
19339;SDS011;9804;52.350;6.684;2023-05-20T14:53:07;3.08;;;1.17;;
19339;SDS011;9804;52.350;6.684;2023-05-20T14:55:33;4.30;;;1.60;;
19339;SDS011;9804;52.350;6.684;2023-05-20T14:57:58;3.25;;;1.50;;
19339;SDS011;9804;52.350;6.684;2023-05-20T15:00:24;4.30;;;1.52;;
19339;SDS011;9804;52.350;6.684;2023-05-20T15:02:49;2.15;;;1.17;;